Flight Track Log - Related Links

Times and Time Zones

All times are in EDT time to prevent confusion due to time zone crossing. See the AAL1475 flight status page for this flight to view local times or setup timezone preferences in your user account.


Time Position Orientation Groundspeed Altitude Reporting Facility
EDT Latitude Longitude Course Direction KTS MPH feet Rate Location/Type
Sat 09:23:55 AM 32.8725 -97.0508 180° South 174 200 1,900  Level FlightAware ADS-B
Sat 09:24:13 AM 32.8609 -97.0512 181° South 195 224 2,300 1,692 Climbing FlightAware ADS-B
Sat 09:24:34 AM 32.8368 -97.0520 181° South 216 249 3,000 2,000 Climbing FlightAware ADS-B
Sat 09:24:55 AM 32.8159 -97.0526 181° South 230 265 3,700 1,950 Climbing FlightAware ADS-B
Sat 09:25:14 AM 32.7937 -97.0531 180° South 250 288 4,300 2,154 Climbing FlightAware ADS-B
Sat 09:25:34 AM 32.7713 -97.0532 180° South 261 300 5,100 2,308 Climbing FlightAware ADS-B
Sat 09:25:53 AM 32.7464 -97.0533 360° North 276 318 5,800 2,550 Climbing FlightAware ADS-B
Sat 09:26:14 AM 32.7206 -97.0534 180° South 276 318 6,800 3,143 Climbing FlightAware ADS-B
Sat 09:26:35 AM 32.6916 -97.0540 180° South 278 320 8,000 2,850 Climbing FlightAware ADS-B
Sat 09:26:54 AM 32.6689 -97.0543 180° South 289 333 8,700 2,526 Climbing FlightAware ADS-B
Sat 09:27:13 AM 32.6415 -97.0547 180° South 300 345 9,600 2,172 Climbing FlightAware ADS-B
Sat 09:27:52 AM 32.5875 -97.0556 180° South 335 386 10,800 2,000 Climbing FlightAware ADS-B
Sat 09:28:34 AM 32.5461 -97.0562 180° South 367 422 12,300 2,828 Climbing FlightAware ADS-B
Sat 09:30:46 AM 32.2736 -97.0592 181° South 394 453 19,000 2,432 Climbing FlightAware ADS-B
Sat 09:31:44 AM 32.1743 -97.0625 181° South 399 459 20,000 306 Climbing FlightAware ADS-B
Sat 09:34:02 AM 31.9132 -97.0706 360° North 398 458 20,000  Level FlightAware ADS-B (CBG / EGSC)
Sat 09:34:37 AM 31.8745 -97.0721 182° South 400 460 20,000  Level FlightAware ADS-B
Sat 09:34:53 AM 31.9132 -97.0706 North 398 458 20,000  Level FlightAware ADS-B (CBG / EGSC)
Sat 09:35:33 AM 31.8050 -97.0740 182° South 400 460 20,000  Level FlightAware ADS-B (CBG / EGSC)
Sat 09:36:03 AM 31.7016 -97.0771 182° South 400 460 20,000  Level FlightAware ADS-B (CBG / EGSC)
Sat 09:37:08 AM 31.5683 -97.0814 182° South 402 463 20,000  Level FlightAware ADS-B
Sat 09:37:33 AM 31.5222 -97.0878 192° South 400 460 20,000  Level FlightAware ADS-B
Sat 09:38:14 AM 31.4761 -97.1039 199° South 398 458 20,000  Level FlightAware ADS-B
Sat 09:38:47 AM 31.3907 -97.1372 199° South 398 458 20,000  Level FlightAware ADS-B
Sat 09:39:04 AM 31.3650 -97.1473 199° South 398 458 20,000  Level FlightAware ADS-B
Sat 09:39:32 AM 31.3130 -97.1678 199° South 398 458 20,000  Level FlightAware ADS-B
Sat 09:40:00 AM 31.2636 -97.1871 199° South 398 458 20,000  Level FlightAware ADS-B
Sat 09:40:17 AM 31.2367 -97.1977 199° South 400 460 20,000 -135 Level FlightAware ADS-B
Sat 09:41:29 AM 31.1203 -97.2431 199° South 400 460 19,800 -960 Descending FlightAware ADS-B
Sat 09:41:57 AM 31.0569 -97.2678 199° South 400 460 18,400 -3,310 Descending FlightAware ADS-B
Sat 09:42:27 AM 31.0047 -97.2881 199° South 408 470 16,600 -2,800 Descending FlightAware ADS-B
Sat 09:42:57 AM 30.9519 -97.3086 199° South 394 453 15,600 -2,429 Descending FlightAware ADS-B
Sat 09:43:51 AM 30.8603 -97.3444 199° South 388 447 13,200 -1,241 Descending FlightAware ADS-B
Sat 09:45:22 AM 30.7197 -97.3983 199° South 315 362 12,600 -744 Descending FlightAware ADS-B
Sat 09:45:52 AM 30.6823 -97.4129 199° South 314 361 11,700 -1,477 Descending FlightAware ADS-B
Sat 09:46:27 AM 30.6292 -97.4336 199° South 312 359 11,000 -738 Descending FlightAware ADS-B
Sat 09:46:57 AM 30.5902 -97.4485 199° South 308 354 10,900 -1,100 Descending FlightAware ADS-B
Sat 09:47:27 AM 30.5477 -97.4649 199° South 312 359 9,900 -1,855 Descending FlightAware ADS-B
Sat 09:47:52 AM 30.5176 -97.4845 227° Southwest 312 359 9,200 -1,574 Descending FlightAware ADS-B
Sat 09:48:28 AM 30.4991 -97.5406 253° West 301 346 8,300 -1,500 Descending FlightAware ADS-B
Sat 09:48:44 AM 30.4931 -97.5641 253° West 293 337 7,900 -1,333 Descending FlightAware ADS-B
Sat 09:49:04 AM 30.4819 -97.5916 237° Southwest 286 329 7,500 -1,200 Descending FlightAware ADS-B
Sat 09:49:19 AM 30.4706 -97.6100 235° Southwest 279 321 7,200 -1,171 Descending FlightAware ADS-B
Sat 09:49:45 AM 30.4519 -97.6411 236° Southwest 256 295 6,700 -1,393 Descending FlightAware ADS-B
Sat 09:50:15 AM 30.4241 -97.6629 206° Southwest 239 275 5,900 -1,733 Descending FlightAware ADS-B
Sat 09:50:30 AM 30.4093 -97.6714 207° Southwest 234 269 5,400 -1,742 Descending FlightAware ADS-B
Sat 09:50:46 AM 30.3946 -97.6798 207° Southwest 226 260 5,000 -1,688 Descending FlightAware ADS-B
Sat 09:51:02 AM 30.3793 -97.6841 185° South 213 245 4,500 -1,902 Descending FlightAware ADS-B
Sat 09:51:27 AM 30.3549 -97.6829 177° South 205 236 3,700 -1,520 Descending FlightAware ADS-B
Sat 09:52:17 AM 30.3105 -97.6819 179° South 196 226 2,600 -1,235 Descending FlightAware ADS-B
Sat 09:52:35 AM 30.2980 -97.6816 179° South 196 226 2,300 -1,116 Descending FlightAware ADS-B
Sat 09:53:00 AM 30.2805 -97.6810 178° South 147 169 1,800 -1,116 Descending FlightAware ADS-B
Sat 09:53:18 AM 30.2691 -97.6807 179° South 142 163 1,500 -727 Descending FlightAware ADS-B
Sat 09:53:33 AM 30.2593 -97.6805 179° South 140 161 1,400 -610 Descending FlightAware ADS-B
Sat 09:54:17 AM 30.2319 -97.6806 179° South 131 151 900 -200 Descending Houston Center
Sat 09:54:33 AM 30.2228 -97.6786 170° South 163 188 1,200 1,125 Climbing Houston Center

Login

Don't have an account? Register now (free) for customized features, flight alerts, and more!